Ana Sayfa
METAR-TAF:

METAR-TAF

Havaalanları :

Sitiawan, Malezya

Enlem: 04-13N, Boylam: 100-42E, yükseklik: 7 m

Güncel hava durumu gözlemi

Rapor saat 15:00 UTC de 25 dakika önce yapıldı.
Sakin rüzgar
Sıcaklık 26°C
Nem 89%
Basınç 1011 hPa
Görüş mesafesi: 9000 m
3200 ft yükseklikte az bulutlu
15000 ft yükseklikte parçalı bulutlu
28000 ft yükseklikte parçalı çok bulutlu

METAR: WMBA 211500Z 00000KT 9000 FEW032 SCT150 BKN280 26/24 Q1011

Saat: 23:25 (15:25 UTC)


TAF: eksik

4.000'den fazla havaalanı için hava durumu gözlemleri ve tahminleri (METAR ve TAF raporları).

Kullanılabilir istasyonlar harita üzerinde sarı ve kırmızı noktalarla gösterilir.

İstasyonun adını görmek için fareyi noktanın üzerinde gezdirin.

Sonrasında hava gözlem ve tahminlerini görmek için tıklayın.

Haritayı değiştirmek için: yaklaştırmak için siyah artı işaretli yeşil düğmeye ve uzaklaştırmak için de eksi işaretli düğmeye hızla tıklayın; bitişik haritalar için yeşil okları kullanın.


METAR-TAF: